createdAt,value
2022-10-27T00:00:38.810Z,10.61
2022-10-27T00:03:05.832Z,10.56
2022-10-27T00:05:34.405Z,10.59
2022-10-27T00:08:01.145Z,10.59
2022-10-27T00:10:28.047Z,10.62
2022-10-27T00:12:55.156Z,10.61
2022-10-27T00:15:21.883Z,10.60
2022-10-27T00:17:48.649Z,10.64
2022-10-27T00:20:15.373Z,10.56
2022-10-27T00:22:42.118Z,10.54
2022-10-27T00:25:09.079Z,10.53
2022-10-27T00:27:36.057Z,10.53
2022-10-27T00:30:03.017Z,10.62
2022-10-27T00:32:30.136Z,10.54
2022-10-27T00:34:56.902Z,10.48
2022-10-27T00:37:23.669Z,10.48
2022-10-27T00:39:50.343Z,10.37
2022-10-27T00:42:17.004Z,10.39
2022-10-27T00:44:47.324Z,10.22
2022-10-27T00:47:23.812Z,10.30
2022-10-27T00:50:07.196Z,10.32
2022-10-27T00:52:37.433Z,10.31
2022-10-27T00:55:08.382Z,10.32
2022-10-27T00:57:35.517Z,10.31
2022-10-27T01:00:04.919Z,10.32
2022-10-27T01:02:32.930Z,10.32
2022-10-27T01:05:13.389Z,10.18
2022-10-27T01:07:41.937Z,10.20
2022-10-27T01:10:08.797Z,10.14
2022-10-27T01:12:35.953Z,10.15
2022-10-27T01:15:03.327Z,10.07
2022-10-27T01:18:06.437Z,10.10
2022-10-27T01:21:28.809Z,10.12
2022-10-27T01:24:11.850Z,10.21
2022-10-27T01:26:51.949Z,9.99
2022-10-27T01:29:56.546Z,9.95
2022-10-27T01:33:12.476Z,9.93
2022-10-27T01:35:50.135Z,9.90
2022-10-27T01:38:21.157Z,10.01
2022-10-27T01:41:06.968Z,9.96
2022-10-27T01:43:35.275Z,10.16
2022-10-27T01:46:04.009Z,10.22
2022-10-27T01:48:33.714Z,10.25
2022-10-27T01:51:01.856Z,10.11
2022-10-27T01:53:31.836Z,10.09
2022-10-27T01:56:48.669Z,10.08
2022-10-27T01:59:44.930Z,10.04
2022-10-27T02:02:35.371Z,10.08
2022-10-27T02:05:42.922Z,10.15
2022-10-27T02:08:42.011Z,10.17
2022-10-27T02:11:10.421Z,10.17
2022-10-27T02:13:40.078Z,10.23
2022-10-27T02:16:09.556Z,10.26
2022-10-27T02:18:40.402Z,10.26
2022-10-27T02:21:09.340Z,10.24
2022-10-27T02:23:36.540Z,10.24
2022-10-27T02:26:21.276Z,10.25
2022-10-27T02:28:56.850Z,10.04
2022-10-27T02:31:33.808Z,10.13
2022-10-27T02:34:01.958Z,10.13
2022-10-27T02:36:29.214Z,10.16
2022-10-27T02:38:55.880Z,10.12
2022-10-27T02:41:23.116Z,10.10
2022-10-27T02:43:50.285Z,10.13
2022-10-27T02:46:17.090Z,10.09
2022-10-27T02:48:43.903Z,10.17
2022-10-27T02:51:11.821Z,10.15
2022-10-27T02:53:38.499Z,10.13
2022-10-27T02:56:05.691Z,10.13
2022-10-27T02:58:32.548Z,10.18
2022-10-27T03:00:59.411Z,10.25
2022-10-27T03:03:26.237Z,9.92
2022-10-27T03:05:53.167Z,10.05
2022-10-27T03:08:23.134Z,10.11
2022-10-27T03:10:50.090Z,10.20
2022-10-27T03:13:16.912Z,10.18
2022-10-27T03:15:46.432Z,10.18
2022-10-27T03:18:14.160Z,10.06
2022-10-27T03:20:44.198Z,10.20
2022-10-27T03:23:11.071Z,10.18
2022-10-27T03:25:42.597Z,10.18
2022-10-27T03:28:12.414Z,10.17
2022-10-27T03:30:40.220Z,10.17
2022-10-27T03:33:06.955Z,10.25
2022-10-27T03:35:33.887Z,10.26
2022-10-27T03:38:02.082Z,10.24
2022-10-27T03:40:29.421Z,10.29
2022-10-27T03:42:59.386Z,10.30
2022-10-27T03:45:27.003Z,10.39
2022-10-27T03:48:05.233Z,10.40
2022-10-27T03:50:32.394Z,10.30
2022-10-27T03:52:59.942Z,10.30
2022-10-27T03:55:27.111Z,10.34
2022-10-27T03:57:54.290Z,10.38
2022-10-27T04:00:21.181Z,10.35
2022-10-27T04:02:48.819Z,10.40
2022-10-27T04:05:15.954Z,10.50
2022-10-27T04:07:46.457Z,10.47
2022-10-27T04:10:14.741Z,10.32
2022-10-27T04:12:52.493Z,10.37
2022-10-27T04:15:20.683Z,10.43
2022-10-27T04:17:47.967Z,10.41
2022-10-27T04:20:14.993Z,10.45
2022-10-27T04:22:41.798Z,10.46
2022-10-27T04:25:08.840Z,10.52
2022-10-27T04:27:35.786Z,10.52
2022-10-27T04:30:02.727Z,10.53
2022-10-27T04:32:29.464Z,10.52
2022-10-27T04:34:56.150Z,10.60
2022-10-27T04:37:23.253Z,10.33
2022-10-27T04:39:49.914Z,10.35
2022-10-27T04:42:16.656Z,10.46
2022-10-27T04:44:43.434Z,10.50
2022-10-27T04:47:10.625Z,10.55
2022-10-27T04:49:37.398Z,10.47
2022-10-27T04:52:04.365Z,10.43
2022-10-27T04:54:31.323Z,10.48
2022-10-27T04:56:58.337Z,10.57
2022-10-27T04:59:25.137Z,10.60
2022-10-27T05:01:52.334Z,10.65
2022-10-27T05:04:19.367Z,10.66
2022-10-27T05:06:46.215Z,10.68
2022-10-27T05:09:12.986Z,10.68
2022-10-27T05:11:39.656Z,10.67
2022-10-27T05:14:06.413Z,10.67
2022-10-27T05:16:33.154Z,10.73
2022-10-27T05:19:00.085Z,10.76
2022-10-27T05:21:26.825Z,10.71
2022-10-27T05:23:53.559Z,10.76
2022-10-27T05:26:20.446Z,10.73
2022-10-27T05:28:48.405Z,10.72
2022-10-27T05:31:15.315Z,10.76
2022-10-27T05:33:42.076Z,10.73
2022-10-27T05:36:09.047Z,10.77
2022-10-27T05:38:38.481Z,10.80
2022-10-27T05:41:07.302Z,10.82
2022-10-27T05:43:37.718Z,10.82
2022-10-27T05:46:06.690Z,10.87
2022-10-27T05:48:33.574Z,10.80
2022-10-27T05:51:00.319Z,10.85
2022-10-27T05:53:26.994Z,10.88
2022-10-27T05:55:54.595Z,10.88
2022-10-27T05:58:21.756Z,10.87
2022-10-27T06:00:48.507Z,10.93
2022-10-27T06:03:23.271Z,10.81
2022-10-27T06:05:50.723Z,10.85
2022-10-27T06:08:18.218Z,10.81
2022-10-27T06:10:45.774Z,10.85
2022-10-27T06:13:16.405Z,10.84
2022-10-27T06:18:11.306Z,10.99
2022-10-27T06:20:37.973Z,11.06
2022-10-27T06:23:04.880Z,11.02
2022-10-27T06:25:31.730Z,11.11
2022-10-27T06:27:58.671Z,11.02
2022-10-27T06:30:25.609Z,11.07
2022-10-27T06:32:52.694Z,11.18
2022-10-27T06:35:20.359Z,11.13
2022-10-27T06:37:47.872Z,11.13
2022-10-27T06:40:17.622Z,11.10
2022-10-27T06:43:09.987Z,10.96
2022-10-27T06:45:31.599Z,10.91
2022-10-27T06:47:59.441Z,10.97
2022-10-27T06:50:26.452Z,11.02
2022-10-27T06:52:53.721Z,11.11
2022-10-27T06:55:21.094Z,11.08
2022-10-27T06:57:48.010Z,11.14
2022-10-27T07:00:15.317Z,11.19
2022-10-27T07:02:42.121Z,11.21
2022-10-27T07:05:09.672Z,11.21
2022-10-27T07:07:37.435Z,11.29
2022-10-27T07:10:06.499Z,11.31
2022-10-27T07:12:33.485Z,11.30
2022-10-27T07:15:00.258Z,11.30
2022-10-27T07:17:26.994Z,11.37
2022-10-27T07:19:53.672Z,11.47
2022-10-27T07:22:20.429Z,11.47
2022-10-27T07:24:47.128Z,11.45
2022-10-27T07:27:13.896Z,11.50
2022-10-27T07:29:41.045Z,11.48
2022-10-27T07:32:07.731Z,11.49
2022-10-27T07:34:34.461Z,11.56
2022-10-27T07:37:01.124Z,11.49
2022-10-27T07:39:28.009Z,11.49
2022-10-27T07:41:54.709Z,11.42
2022-10-27T07:44:21.630Z,11.57
2022-10-27T07:46:48.385Z,11.59
2022-10-27T07:49:15.314Z,11.66
2022-10-27T07:51:42.149Z,11.74
2022-10-27T07:54:09.330Z,11.80
2022-10-27T07:56:37.421Z,11.95
2022-10-27T07:59:05.102Z,11.99
2022-10-27T08:01:32.373Z,12.03
2022-10-27T08:03:59.390Z,12.11
2022-10-27T08:06:26.664Z,12.17
2022-10-27T08:08:53.459Z,12.28
2022-10-27T08:11:20.508Z,12.33
2022-10-27T08:13:47.307Z,12.43
2022-10-27T08:16:14.111Z,12.41
2022-10-27T08:18:40.812Z,12.43
2022-10-27T08:21:07.767Z,12.47
2022-10-27T08:23:34.466Z,12.53
2022-10-27T08:26:01.183Z,12.61
2022-10-27T08:28:28.201Z,12.72
2022-10-27T08:30:55.144Z,12.71
2022-10-27T08:33:22.941Z,12.80
2022-10-27T08:35:50.978Z,12.91
2022-10-27T08:38:18.494Z,13.00
2022-10-27T08:41:25.610Z,13.11
2022-10-27T08:44:41.854Z,13.35
2022-10-27T08:47:16.474Z,13.45
2022-10-27T08:49:51.807Z,13.56
2022-10-27T08:52:50.643Z,13.73
2022-10-27T08:55:24.166Z,13.89
2022-10-27T08:58:04.102Z,13.95
2022-10-27T09:00:36.823Z,14.01
2022-10-27T09:03:41.996Z,14.10
2022-10-27T09:06:23.440Z,14.14
2022-10-27T09:08:56.464Z,14.29
2022-10-27T09:11:57.318Z,14.46
2022-10-27T09:15:07.476Z,14.53
2022-10-27T09:17:41.784Z,14.72
2022-10-27T09:20:17.583Z,14.81
2022-10-27T09:22:44.340Z,14.94
2022-10-27T09:25:19.610Z,15.03
2022-10-27T09:27:49.484Z,15.13
2022-10-27T09:30:17.072Z,15.28
2022-10-27T09:32:50.387Z,15.42
2022-10-27T09:35:29.197Z,15.53
2022-10-27T09:37:58.284Z,15.51
2022-10-27T09:40:26.255Z,15.48
2022-10-27T09:42:55.459Z,15.44
2022-10-27T09:45:26.903Z,15.47
2022-10-27T09:48:15.876Z,15.47
2022-10-27T09:51:13.714Z,15.53
2022-10-27T09:53:48.283Z,15.58
2022-10-27T09:56:38.289Z,15.65
2022-10-27T09:59:05.991Z,15.66
2022-10-27T10:01:59.867Z,15.73
2022-10-27T10:04:43.163Z,15.83
2022-10-27T10:07:40.636Z,15.98
2022-10-27T10:10:41.058Z,16.14
2022-10-27T10:13:13.885Z,16.19
2022-10-27T10:15:45.597Z,16.20
2022-10-27T10:18:28.941Z,16.25
2022-10-27T10:21:01.631Z,16.31
2022-10-27T10:23:31.337Z,16.27
2022-10-27T10:26:02.139Z,16.33
2022-10-27T10:28:35.626Z,16.24
2022-10-27T10:31:05.532Z,16.43
2022-10-27T10:33:45.319Z,16.65
2022-10-27T10:36:29.572Z,16.76
2022-10-27T10:38:58.771Z,16.85
2022-10-27T10:41:26.876Z,16.93
2022-10-27T10:44:16.613Z,17.09
2022-10-27T10:46:55.229Z,17.16
2022-10-27T10:49:27.476Z,17.23
2022-10-27T10:51:58.353Z,17.31
2022-10-27T10:54:28.404Z,17.31
2022-10-27T10:56:56.159Z,17.29
2022-10-27T10:59:31.285Z,17.38
2022-10-27T11:02:19.372Z,17.44
2022-10-27T11:04:49.590Z,17.51
2022-10-27T11:07:32.597Z,17.62
2022-10-27T11:10:15.000Z,17.73
2022-10-27T11:12:55.273Z,17.87
2022-10-27T11:15:28.703Z,18.07
2022-10-27T11:17:59.881Z,18.06
2022-10-27T11:20:32.132Z,18.26
2022-10-27T11:23:00.486Z,18.34
2022-10-27T11:25:32.366Z,18.42
2022-10-27T11:28:22.081Z,18.48
2022-10-27T11:31:21.351Z,18.57
2022-10-27T11:34:12.835Z,18.70
2022-10-27T11:36:47.085Z,18.81
2022-10-27T11:39:40.468Z,18.90
2022-10-27T11:42:21.069Z,18.96
2022-10-27T11:45:12.004Z,19.09
2022-10-27T11:47:44.700Z,19.18
2022-10-27T11:50:18.663Z,19.31
2022-10-27T11:52:50.172Z,19.32
2022-10-27T11:55:19.452Z,19.41
2022-10-27T11:58:00.882Z,19.47
2022-10-27T12:00:29.748Z,19.43
2022-10-27T12:03:39.528Z,19.45
2022-10-27T12:06:27.810Z,19.46
2022-10-27T12:09:33.487Z,19.56
2022-10-27T12:12:14.474Z,19.57
2022-10-27T12:14:52.032Z,19.44
2022-10-27T12:17:33.046Z,19.57
2022-10-27T12:20:04.112Z,19.53
2022-10-27T12:22:52.272Z,19.56
2022-10-27T12:25:29.151Z,19.56
2022-10-27T12:27:58.453Z,19.41
2022-10-27T12:30:25.945Z,19.48
2022-10-27T12:33:17.390Z,19.62
2022-10-27T12:36:09.714Z,19.49
2022-10-27T12:39:26.690Z,19.48
2022-10-27T12:42:18.213Z,19.47
2022-10-27T12:45:19.232Z,19.49
2022-10-27T12:48:05.003Z,19.54
2022-10-27T12:51:01.243Z,19.61
2022-10-27T12:53:48.919Z,19.68
2022-10-27T12:56:43.796Z,19.74
2022-10-27T13:00:09.479Z,19.67
2022-10-27T13:02:48.145Z,19.80
2022-10-27T13:05:54.275Z,19.75
2022-10-27T13:08:58.191Z,19.92
2022-10-27T13:12:12.763Z,19.91
2022-10-27T13:18:20.853Z,19.95
2022-10-27T13:21:12.661Z,19.93
2022-10-27T13:23:47.732Z,19.95
2022-10-27T13:26:29.600Z,19.94
2022-10-27T13:29:00.416Z,19.97
2022-10-27T13:31:27.481Z,19.94
2022-10-27T13:34:20.806Z,19.94
2022-10-27T13:36:47.712Z,19.95
2022-10-27T13:39:34.735Z,19.92
2022-10-27T13:42:01.599Z,19.97
2022-10-27T13:44:33.859Z,19.89
2022-10-27T13:47:18.552Z,19.83
2022-10-27T13:49:59.162Z,19.86
2022-10-27T13:52:27.175Z,19.94
2022-10-27T13:55:29.078Z,19.92
2022-10-27T13:58:39.731Z,19.89
2022-10-27T14:01:31.116Z,19.94
2022-10-27T14:04:22.255Z,19.94
2022-10-27T14:07:03.859Z,19.96
2022-10-27T14:09:35.989Z,19.93
2022-10-27T14:12:16.256Z,19.91
2022-10-27T14:14:44.128Z,19.96
2022-10-27T14:17:22.026Z,19.93
2022-10-27T14:19:57.614Z,19.86
2022-10-27T14:22:46.386Z,19.91
2022-10-27T14:25:27.745Z,19.97
2022-10-27T14:28:20.875Z,19.97
2022-10-27T14:31:08.858Z,19.94
2022-10-27T14:33:38.609Z,19.85
2022-10-27T14:36:25.113Z,19.78
2022-10-27T14:39:05.109Z,19.82
2022-10-27T14:41:34.063Z,19.77
2022-10-27T14:44:03.011Z,19.63
2022-10-27T14:46:47.080Z,19.66
2022-10-27T14:49:18.510Z,19.64
2022-10-27T14:51:47.257Z,19.63
2022-10-27T14:54:18.896Z,19.56
2022-10-27T14:56:47.266Z,19.54
2022-10-27T14:59:32.533Z,19.46
2022-10-27T15:01:59.297Z,19.46
2022-10-27T15:04:27.860Z,19.31
2022-10-27T15:06:57.575Z,19.30
2022-10-27T15:09:39.855Z,19.21
2022-10-27T15:12:16.309Z,19.27
2022-10-27T15:14:45.834Z,19.15
2022-10-27T15:17:15.432Z,19.04
2022-10-27T15:19:52.565Z,19.02
2022-10-27T15:22:19.653Z,19.00
2022-10-27T15:24:46.890Z,18.89
2022-10-27T15:27:13.954Z,18.81
2022-10-27T15:29:42.667Z,18.80
2022-10-27T15:32:24.145Z,18.71
2022-10-27T15:34:51.231Z,18.68
2022-10-27T15:37:33.858Z,18.67
2022-10-27T15:40:21.475Z,18.57
2022-10-27T15:42:48.421Z,18.43
2022-10-27T15:45:50.651Z,18.44
2022-10-27T15:48:35.368Z,18.36
2022-10-27T15:51:07.618Z,18.33
2022-10-27T15:53:55.180Z,18.19
2022-10-27T15:56:40.893Z,18.18
2022-10-27T15:59:20.548Z,18.07
2022-10-27T16:01:49.210Z,18.05
2022-10-27T16:04:36.634Z,18.02
2022-10-27T16:07:33.014Z,18.01
2022-10-27T16:10:00.276Z,17.86
2022-10-27T16:12:29.665Z,17.92
2022-10-27T16:15:01.792Z,17.82
2022-10-27T16:17:35.701Z,17.83
2022-10-27T16:20:06.159Z,17.78
2022-10-27T16:22:33.105Z,17.80
2022-10-27T16:24:59.769Z,17.74
2022-10-27T16:27:27.074Z,17.71
2022-10-27T16:29:58.974Z,17.77
2022-10-27T16:32:30.610Z,17.66
2022-10-27T16:34:57.932Z,17.68
2022-10-27T16:37:30.656Z,17.60
2022-10-27T16:39:57.431Z,17.57
2022-10-27T16:42:25.274Z,17.39
2022-10-27T16:44:52.024Z,17.41
2022-10-27T16:47:20.944Z,17.36
2022-10-27T16:49:48.957Z,17.36
2022-10-27T16:52:16.073Z,17.37
2022-10-27T16:54:43.020Z,17.35
2022-10-27T16:57:10.991Z,17.22
2022-10-27T16:59:37.841Z,17.24
2022-10-27T17:02:04.824Z,17.17
2022-10-27T17:04:32.709Z,17.13
2022-10-27T17:06:59.538Z,17.01
2022-10-27T17:09:26.420Z,17.07
2022-10-27T17:11:53.098Z,17.01
2022-10-27T17:14:19.896Z,17.02
2022-10-27T17:16:46.651Z,16.96
2022-10-27T17:19:13.347Z,16.87
2022-10-27T17:21:40.353Z,16.89
2022-10-27T17:24:07.455Z,16.80
2022-10-27T17:26:34.228Z,16.66
2022-10-27T17:29:01.101Z,16.58
2022-10-27T17:31:28.263Z,16.54
2022-10-27T17:33:59.875Z,16.49
2022-10-27T17:36:27.432Z,16.38
2022-10-27T17:38:54.761Z,16.35
2022-10-27T17:41:21.869Z,16.31
2022-10-27T17:43:49.194Z,16.30
2022-10-27T17:46:20.718Z,16.20
2022-10-27T17:48:54.341Z,16.14
2022-10-27T17:51:23.652Z,16.06
2022-10-27T17:53:51.562Z,16.08
2022-10-27T17:56:23.989Z,16.07
2022-10-27T17:58:50.784Z,16.00
2022-10-27T18:01:25.997Z,15.92
2022-10-27T18:03:54.550Z,15.85
2022-10-27T18:06:23.798Z,15.85
2022-10-27T18:08:53.823Z,15.79
2022-10-27T18:11:26.732Z,15.74
2022-10-27T18:13:54.366Z,15.69
2022-10-27T18:16:24.541Z,15.57
2022-10-27T18:19:02.488Z,15.50
2022-10-27T18:21:31.225Z,15.54
2022-10-27T18:23:59.232Z,15.51
2022-10-27T18:26:27.310Z,15.52
2022-10-27T18:28:54.334Z,15.40
2022-10-27T18:31:23.123Z,15.45
2022-10-27T18:33:50.102Z,15.40
2022-10-27T18:36:18.839Z,15.31
2022-10-27T18:38:46.283Z,15.34
2022-10-27T18:41:15.197Z,15.33
2022-10-27T18:43:45.585Z,15.40
2022-10-27T18:46:13.932Z,15.36
2022-10-27T18:48:40.869Z,15.38
2022-10-27T18:51:11.273Z,15.41
2022-10-27T18:53:38.029Z,15.44
2022-10-27T18:56:07.160Z,15.40
2022-10-27T18:58:34.731Z,15.34
2022-10-27T19:01:09.519Z,15.35
2022-10-27T19:03:36.362Z,15.30
2022-10-27T19:06:05.128Z,15.32
2022-10-27T19:08:32.319Z,15.32
2022-10-27T19:11:07.331Z,15.18
2022-10-27T19:13:35.158Z,15.16
2022-10-27T19:16:03.410Z,15.04
2022-10-27T19:18:30.708Z,15.02
2022-10-27T19:20:58.782Z,15.10
2022-10-27T19:23:25.812Z,15.00
2022-10-27T19:25:53.514Z,14.85
2022-10-27T19:28:21.215Z,14.90
2022-10-27T19:30:57.592Z,14.92
2022-10-27T19:33:24.670Z,14.91
2022-10-27T19:35:51.536Z,14.83
2022-10-27T19:38:18.789Z,14.85
2022-10-27T19:40:45.887Z,14.86
2022-10-27T19:43:12.621Z,14.88
2022-10-27T19:45:39.279Z,14.79
2022-10-27T19:48:07.738Z,14.76
2022-10-27T19:50:34.416Z,14.61
2022-10-27T19:53:02.634Z,14.64
2022-10-27T19:55:30.895Z,14.76
2022-10-27T19:57:57.694Z,14.75
2022-10-27T20:00:24.594Z,14.74
2022-10-27T20:02:51.765Z,14.81
2022-10-27T20:05:23.796Z,14.84
2022-10-27T20:07:51.425Z,14.87
2022-10-27T20:10:19.082Z,14.86
2022-10-27T20:12:45.864Z,14.90
2022-10-27T20:15:13.233Z,14.81
2022-10-27T20:17:40.341Z,14.83
2022-10-27T20:20:08.091Z,14.82
2022-10-27T20:22:34.977Z,14.90
2022-10-27T20:25:01.753Z,14.76
2022-10-27T20:27:29.648Z,14.67
2022-10-27T20:29:56.761Z,14.69
2022-10-27T20:32:24.026Z,14.65
2022-10-27T20:34:51.577Z,14.71
2022-10-27T20:37:18.386Z,14.65
2022-10-27T20:39:45.367Z,14.61
2022-10-27T20:42:12.281Z,14.57
2022-10-27T20:44:39.057Z,14.50
2022-10-27T20:47:05.799Z,14.47
2022-10-27T20:49:32.543Z,14.45
2022-10-27T20:51:59.177Z,14.40
2022-10-27T20:54:26.123Z,14.33
2022-10-27T20:56:53.714Z,14.27
2022-10-27T20:59:23.909Z,14.20
2022-10-27T21:01:54.323Z,14.03
2022-10-27T21:04:22.319Z,14.13
2022-10-27T21:06:50.533Z,14.11
2022-10-27T21:09:19.746Z,14.11
2022-10-27T21:11:46.982Z,13.97
2022-10-27T21:14:14.292Z,14.02
2022-10-27T21:16:41.167Z,13.95
2022-10-27T21:19:09.502Z,13.98
2022-10-27T21:21:37.034Z,14.05
2022-10-27T21:24:04.759Z,14.09
2022-10-27T21:26:31.978Z,14.08
2022-10-27T21:28:59.548Z,14.18
2022-10-27T21:31:29.175Z,14.17
2022-10-27T21:33:56.613Z,14.17
2022-10-27T21:36:23.499Z,14.18
2022-10-27T21:38:51.179Z,14.23
2022-10-27T21:41:20.392Z,14.37
2022-10-27T21:43:50.252Z,14.29
2022-10-27T21:46:19.684Z,14.32
2022-10-27T21:48:46.808Z,14.35
2022-10-27T21:51:15.258Z,14.39
2022-10-27T21:53:42.781Z,14.40
2022-10-27T21:56:11.063Z,14.45
2022-10-27T21:58:38.327Z,14.40
2022-10-27T22:01:10.802Z,14.43
2022-10-27T22:03:38.041Z,14.39
2022-10-27T22:06:05.485Z,14.36
2022-10-27T22:08:32.522Z,14.35
2022-10-27T22:11:03.862Z,14.28
2022-10-27T22:13:30.692Z,14.35
2022-10-27T22:16:06.784Z,14.18
2022-10-27T22:18:33.950Z,14.14
2022-10-27T22:21:00.663Z,13.99
2022-10-27T22:23:27.443Z,13.96
2022-10-27T22:25:54.379Z,13.85
2022-10-27T22:28:21.132Z,13.87
2022-10-27T22:30:47.857Z,13.94
2022-10-27T22:33:14.613Z,13.82
2022-10-27T22:35:41.407Z,13.82
2022-10-27T22:38:08.254Z,13.83
2022-10-27T22:40:34.954Z,13.85
2022-10-27T22:43:01.651Z,13.83
2022-10-27T22:45:28.542Z,13.80
2022-10-27T22:47:55.568Z,13.81
2022-10-27T22:50:22.373Z,13.83
2022-10-27T22:52:49.235Z,13.77
2022-10-27T22:55:16.116Z,13.78
2022-10-27T22:57:42.890Z,13.77
2022-10-27T23:00:10.229Z,13.73
2022-10-27T23:02:36.925Z,13.65
2022-10-27T23:05:04.165Z,13.69
2022-10-27T23:07:31.033Z,13.67
2022-10-27T23:09:57.886Z,13.57
2022-10-27T23:12:24.604Z,13.69
2022-10-27T23:14:51.542Z,13.68
2022-10-27T23:17:18.271Z,13.61
2022-10-27T23:19:44.960Z,13.62
2022-10-27T23:22:11.732Z,13.60
2022-10-27T23:24:38.410Z,13.52
2022-10-27T23:27:05.064Z,13.50
2022-10-27T23:29:31.973Z,13.47
2022-10-27T23:31:58.774Z,13.46
2022-10-27T23:34:25.641Z,13.44
2022-10-27T23:36:52.312Z,13.38
2022-10-27T23:39:19.003Z,13.33
2022-10-27T23:41:45.701Z,13.26
2022-10-27T23:44:12.668Z,13.30
2022-10-27T23:46:39.386Z,13.29
2022-10-27T23:49:06.136Z,13.32
2022-10-27T23:51:33.029Z,13.25
2022-10-27T23:54:00.034Z,13.22
2022-10-27T23:56:26.987Z,13.12
2022-10-27T23:58:54.404Z,13.07
